createdAt,value
2023-05-10T00:00:17.353Z,12.67
2023-05-10T00:02:44.853Z,12.69
2023-05-10T00:05:11.393Z,12.67
2023-05-10T00:07:37.942Z,12.67
2023-05-10T00:10:04.724Z,12.68
2023-05-10T00:12:31.239Z,12.66
2023-05-10T00:14:57.774Z,12.65
2023-05-10T00:17:24.280Z,12.64
2023-05-10T00:19:50.797Z,12.68
2023-05-10T00:22:17.320Z,12.66
2023-05-10T00:24:43.792Z,12.65
2023-05-10T00:27:10.228Z,12.66
2023-05-10T00:29:36.735Z,12.66
2023-05-10T00:32:03.335Z,12.67
2023-05-10T00:34:29.815Z,12.68
2023-05-10T00:36:57.124Z,12.65
2023-05-10T00:39:23.659Z,12.69
2023-05-10T00:41:50.191Z,12.70
2023-05-10T00:44:16.691Z,12.70
2023-05-10T00:46:43.248Z,12.73
2023-05-10T00:49:09.802Z,12.75
2023-05-10T00:51:37.421Z,12.75
2023-05-10T00:54:04.250Z,12.73
2023-05-10T00:56:31.043Z,12.70
2023-05-10T00:58:58.007Z,12.74
2023-05-10T01:01:24.627Z,12.74
2023-05-10T01:03:51.387Z,12.71
2023-05-10T01:06:17.869Z,12.75
2023-05-10T01:08:44.477Z,12.75
2023-05-10T01:11:11.059Z,12.74
2023-05-10T01:13:40.468Z,12.74
2023-05-10T01:16:07.706Z,12.74
2023-05-10T01:18:39.150Z,12.75
2023-05-10T01:21:16.562Z,12.72
2023-05-10T01:24:18.479Z,12.74
2023-05-10T01:26:56.736Z,12.71
2023-05-10T01:29:41.557Z,12.72
2023-05-10T01:32:40.846Z,12.71
2023-05-10T01:35:13.894Z,12.70
2023-05-10T01:37:51.401Z,12.66
2023-05-10T01:40:30.633Z,12.68
2023-05-10T01:43:03.922Z,12.66
2023-05-10T01:45:50.826Z,12.65
2023-05-10T01:48:19.462Z,12.66
2023-05-10T01:50:48.568Z,12.70
2023-05-10T01:53:19.787Z,12.69
2023-05-10T01:55:49.837Z,12.73
2023-05-10T01:58:35.271Z,12.73
2023-05-10T02:01:05.422Z,12.74
2023-05-10T02:03:34.303Z,12.69
2023-05-10T02:06:00.920Z,12.73
2023-05-10T02:08:27.823Z,12.74
2023-05-10T02:10:58.592Z,12.73
2023-05-10T02:13:27.840Z,12.73
2023-05-10T02:15:56.627Z,12.74
2023-05-10T02:18:24.789Z,12.73
2023-05-10T02:20:53.822Z,12.70
2023-05-10T02:23:21.585Z,12.72
2023-05-10T02:25:50.406Z,12.68
2023-05-10T02:28:19.095Z,12.71
2023-05-10T02:30:45.981Z,12.70
2023-05-10T02:33:13.154Z,12.68
2023-05-10T02:35:40.483Z,12.67
2023-05-10T02:38:08.386Z,12.67
2023-05-10T02:40:37.716Z,12.64
2023-05-10T02:43:06.929Z,12.63
2023-05-10T02:45:36.489Z,12.64
2023-05-10T02:48:03.822Z,12.62
2023-05-10T02:50:33.419Z,12.65
2023-05-10T02:53:10.553Z,12.63
2023-05-10T02:55:41.141Z,12.64
2023-05-10T02:58:07.685Z,12.59
2023-05-10T03:00:34.640Z,12.55
2023-05-10T03:03:01.574Z,12.46
2023-05-10T03:05:28.078Z,12.39
2023-05-10T03:07:55.473Z,12.30
2023-05-10T03:10:27.974Z,12.25
2023-05-10T03:13:08.661Z,12.17
2023-05-10T03:15:38.745Z,12.20
2023-05-10T03:18:21.945Z,12.19
2023-05-10T03:20:50.806Z,12.17
2023-05-10T03:23:38.075Z,12.14
2023-05-10T03:26:06.315Z,12.12
2023-05-10T03:28:35.033Z,12.10
2023-05-10T03:31:02.478Z,12.11
2023-05-10T03:33:29.064Z,12.09
2023-05-10T03:35:55.503Z,12.13
2023-05-10T03:38:21.957Z,12.13
2023-05-10T03:40:48.420Z,12.13
2023-05-10T03:43:14.864Z,12.13
2023-05-10T03:45:41.479Z,12.14
2023-05-10T03:48:08.089Z,12.18
2023-05-10T03:50:34.746Z,12.16
2023-05-10T03:53:01.229Z,12.13
2023-05-10T03:55:27.751Z,12.12
2023-05-10T03:57:54.913Z,12.19
2023-05-10T04:00:21.403Z,12.18
2023-05-10T04:02:47.965Z,12.20
2023-05-10T04:05:14.481Z,12.17
2023-05-10T04:07:40.986Z,12.20
2023-05-10T04:10:08.114Z,12.17
2023-05-10T04:12:34.615Z,12.24
2023-05-10T04:15:01.328Z,12.23
2023-05-10T04:17:27.862Z,12.21
2023-05-10T04:19:55.832Z,12.18
2023-05-10T04:22:22.404Z,12.20
2023-05-10T04:24:48.906Z,12.21
2023-05-10T04:27:15.399Z,12.21
2023-05-10T04:29:42.605Z,12.22
2023-05-10T04:32:09.164Z,12.23
2023-05-10T04:34:35.655Z,12.23
2023-05-10T04:37:02.249Z,12.22
2023-05-10T04:39:28.818Z,12.25
2023-05-10T04:41:55.416Z,12.24
2023-05-10T04:44:22.232Z,12.27
2023-05-10T04:46:48.813Z,12.22
2023-05-10T04:49:15.454Z,12.27
2023-05-10T04:51:41.960Z,12.25
2023-05-10T04:54:08.408Z,12.26
2023-05-10T04:56:34.911Z,12.28
2023-05-10T04:59:01.501Z,12.32
2023-05-10T05:01:28.082Z,12.32
2023-05-10T05:03:54.880Z,12.36
2023-05-10T05:06:25.872Z,12.39
2023-05-10T05:08:52.500Z,12.38
2023-05-10T05:11:19.037Z,12.39
2023-05-10T05:13:45.551Z,12.42
2023-05-10T05:16:12.523Z,12.46
2023-05-10T05:18:39.365Z,12.45
2023-05-10T05:21:19.356Z,12.44
2023-05-10T05:23:46.337Z,12.49
2023-05-10T05:26:13.019Z,12.48
2023-05-10T05:28:39.748Z,12.48
2023-05-10T05:31:07.315Z,12.51
2023-05-10T05:33:34.421Z,12.55
2023-05-10T05:36:05.858Z,12.54
2023-05-10T05:38:32.705Z,12.58
2023-05-10T05:40:59.265Z,12.55
2023-05-10T05:43:26.001Z,12.54
2023-05-10T05:45:59.329Z,12.57
2023-05-10T05:48:25.912Z,12.56
2023-05-10T05:50:56.448Z,12.57
2023-05-10T05:53:23.355Z,12.54
2023-05-10T05:55:57.350Z,12.51
2023-05-10T05:58:24.103Z,12.53
2023-05-10T06:00:51.421Z,12.44
2023-05-10T06:03:18.039Z,12.39
2023-05-10T06:05:44.809Z,12.39
2023-05-10T06:08:11.397Z,12.33
2023-05-10T06:10:38.312Z,12.33
2023-05-10T06:13:04.930Z,12.30
2023-05-10T06:15:31.501Z,12.34
2023-05-10T06:17:58.055Z,12.30
2023-05-10T06:20:24.636Z,12.29
2023-05-10T06:22:51.160Z,12.25
2023-05-10T06:25:19.355Z,12.25
2023-05-10T06:27:49.784Z,12.27
2023-05-10T06:30:18.466Z,12.28
2023-05-10T06:32:46.214Z,12.29
2023-05-10T06:35:12.854Z,12.30
2023-05-10T06:37:39.412Z,12.34
2023-05-10T06:40:07.383Z,12.32
2023-05-10T06:42:33.855Z,12.37
2023-05-10T06:45:00.393Z,12.38
2023-05-10T06:47:27.080Z,12.41
2023-05-10T06:49:53.636Z,12.42
2023-05-10T06:52:20.143Z,12.43
2023-05-10T06:54:46.676Z,12.43
2023-05-10T06:57:30.040Z,12.46
2023-05-10T06:59:58.031Z,12.42
2023-05-10T07:02:24.560Z,12.40
2023-05-10T07:04:52.989Z,12.39
2023-05-10T07:07:20.237Z,12.37
2023-05-10T07:09:46.907Z,12.40
2023-05-10T07:12:15.277Z,12.41
2023-05-10T07:14:43.115Z,12.43
2023-05-10T07:17:10.091Z,12.45
2023-05-10T07:19:36.917Z,12.52
2023-05-10T07:22:03.636Z,12.59
2023-05-10T07:24:30.828Z,12.61
2023-05-10T07:26:57.364Z,12.62
2023-05-10T07:29:23.959Z,12.58
2023-05-10T07:31:51.598Z,12.57
2023-05-10T07:34:18.258Z,12.59
2023-05-10T07:36:44.947Z,12.61
2023-05-10T07:39:14.388Z,12.64
2023-05-10T07:41:43.082Z,12.69
2023-05-10T07:44:09.877Z,12.76
2023-05-10T07:46:36.421Z,12.91
2023-05-10T07:49:02.920Z,12.96
2023-05-10T07:51:29.677Z,12.91
2023-05-10T07:53:56.281Z,12.99
2023-05-10T07:56:30.826Z,13.00
2023-05-10T07:58:57.965Z,13.08
2023-05-10T08:01:24.932Z,13.10
2023-05-10T08:03:52.269Z,13.04
2023-05-10T08:06:20.226Z,12.98
2023-05-10T08:08:50.339Z,12.95
2023-05-10T08:11:18.499Z,13.00
2023-05-10T08:13:46.048Z,12.97
2023-05-10T08:16:12.829Z,13.00
2023-05-10T08:18:40.386Z,12.97
2023-05-10T08:21:07.120Z,12.97
2023-05-10T08:23:33.617Z,12.97
2023-05-10T08:26:00.950Z,12.99
2023-05-10T08:28:28.094Z,13.05
2023-05-10T08:30:54.842Z,13.14
2023-05-10T08:33:21.600Z,13.18
2023-05-10T08:35:48.100Z,13.17
2023-05-10T08:38:14.807Z,13.13
2023-05-10T08:40:45.448Z,13.15
2023-05-10T08:43:13.372Z,13.23
2023-05-10T08:45:41.810Z,13.25
2023-05-10T08:48:10.273Z,13.29
2023-05-10T08:50:37.984Z,13.28
2023-05-10T08:53:07.932Z,13.28
2023-05-10T08:55:34.875Z,13.29
2023-05-10T08:58:01.535Z,13.32
2023-05-10T09:00:29.268Z,13.39
2023-05-10T09:02:56.094Z,13.45
2023-05-10T09:05:22.699Z,13.55
2023-05-10T09:07:49.334Z,13.67
2023-05-10T09:10:16.794Z,13.72
2023-05-10T09:12:45.102Z,13.81
2023-05-10T09:15:12.302Z,13.86
2023-05-10T09:17:41.266Z,13.98
2023-05-10T09:20:08.320Z,14.16
2023-05-10T09:22:36.038Z,14.31
2023-05-10T09:25:10.244Z,14.46
2023-05-10T09:27:37.223Z,14.57
2023-05-10T09:30:04.976Z,14.66
2023-05-10T09:32:37.873Z,14.77
2023-05-10T09:35:29.662Z,14.96
2023-05-10T09:38:00.445Z,15.10
2023-05-10T09:40:28.780Z,15.15
2023-05-10T09:43:08.010Z,15.25
2023-05-10T09:45:38.625Z,15.34
2023-05-10T09:48:07.004Z,15.44
2023-05-10T09:50:35.081Z,15.54
2023-05-10T09:53:04.691Z,15.44
2023-05-10T09:55:37.294Z,15.46
2023-05-10T09:58:03.807Z,15.43
2023-05-10T10:00:36.458Z,15.39
2023-05-10T10:03:04.291Z,15.32
2023-05-10T10:05:36.930Z,15.25
2023-05-10T10:08:05.498Z,15.06
2023-05-10T10:10:33.696Z,14.97
2023-05-10T10:13:00.650Z,14.95
2023-05-10T10:15:27.473Z,14.94
2023-05-10T10:17:55.099Z,15.04
2023-05-10T10:20:24.065Z,15.15
2023-05-10T10:22:51.002Z,15.17
2023-05-10T10:25:19.672Z,15.21
2023-05-10T10:28:05.578Z,15.20
2023-05-10T10:30:44.807Z,15.18
2023-05-10T10:33:40.155Z,15.17
2023-05-10T10:36:07.291Z,15.18
2023-05-10T10:38:49.209Z,15.16
2023-05-10T10:41:36.023Z,15.25
2023-05-10T10:44:27.694Z,15.22
2023-05-10T10:47:01.627Z,15.26
2023-05-10T10:49:28.238Z,15.21
2023-05-10T10:52:16.994Z,15.30
2023-05-10T10:54:51.978Z,15.32
2023-05-10T10:57:20.369Z,15.40
2023-05-10T10:59:47.321Z,15.46
2023-05-10T11:02:44.203Z,15.46
2023-05-10T11:05:44.298Z,15.50
2023-05-10T11:08:29.725Z,15.48
2023-05-10T11:11:04.219Z,15.45
2023-05-10T11:13:40.560Z,15.32
2023-05-10T11:16:18.909Z,15.28
2023-05-10T11:19:06.251Z,15.26
2023-05-10T11:21:34.186Z,15.29
2023-05-10T11:24:02.419Z,15.27
2023-05-10T11:26:34.661Z,15.33
2023-05-10T11:29:02.806Z,15.42
2023-05-10T11:31:30.367Z,15.57
2023-05-10T11:33:58.927Z,15.72
2023-05-10T11:36:28.648Z,15.93
2023-05-10T11:38:56.509Z,16.21
2023-05-10T11:41:24.770Z,16.52
2023-05-10T11:43:52.594Z,16.74
2023-05-10T11:46:21.686Z,16.83
2023-05-10T11:48:51.581Z,16.71
2023-05-10T11:51:22.236Z,16.54
2023-05-10T11:53:48.820Z,16.49
2023-05-10T11:56:15.303Z,16.39
2023-05-10T11:58:41.934Z,16.37
2023-05-10T12:01:10.037Z,16.30
2023-05-10T12:03:37.085Z,16.13
2023-05-10T12:06:04.178Z,16.09
2023-05-10T12:08:31.835Z,16.12
2023-05-10T12:11:09.633Z,16.16
2023-05-10T12:13:42.833Z,16.17
2023-05-10T12:16:18.089Z,16.24
2023-05-10T12:18:45.912Z,16.36
2023-05-10T12:21:16.221Z,16.43
2023-05-10T12:23:43.135Z,16.49
2023-05-10T12:26:12.714Z,16.58
2023-05-10T12:28:40.520Z,16.64
2023-05-10T12:31:07.872Z,16.75
2023-05-10T12:33:43.627Z,16.87
2023-05-10T12:36:12.222Z,16.94
2023-05-10T12:38:43.157Z,17.08
2023-05-10T12:41:12.734Z,17.26
2023-05-10T12:43:40.003Z,17.38
2023-05-10T12:46:12.080Z,17.46
2023-05-10T12:48:39.840Z,17.62
2023-05-10T12:51:10.253Z,17.67
2023-05-10T12:53:37.663Z,17.45
2023-05-10T12:56:04.414Z,17.39
2023-05-10T12:58:35.968Z,17.30
2023-05-10T13:01:03.572Z,17.28
2023-05-10T13:03:30.121Z,17.19
2023-05-10T13:05:56.622Z,17.14
2023-05-10T13:08:23.266Z,17.04
2023-05-10T13:10:49.956Z,16.92
2023-05-10T13:13:16.642Z,16.80
2023-05-10T13:15:43.106Z,16.38
2023-05-10T13:18:09.638Z,16.02
2023-05-10T13:20:36.174Z,15.65
2023-05-10T13:23:03.638Z,15.25
2023-05-10T13:25:30.371Z,14.95
2023-05-10T13:27:56.838Z,14.72
2023-05-10T13:30:24.768Z,14.39
2023-05-10T13:32:51.529Z,13.91
2023-05-10T13:35:18.095Z,13.60
2023-05-10T13:37:44.653Z,13.34
2023-05-10T13:40:11.395Z,13.21
2023-05-10T13:42:38.513Z,13.14
2023-05-10T13:45:05.665Z,13.14
2023-05-10T13:47:32.332Z,13.18
2023-05-10T13:49:59.680Z,13.10
2023-05-10T13:52:27.234Z,13.02
2023-05-10T13:54:55.948Z,12.98
2023-05-10T13:57:22.925Z,12.94
2023-05-10T13:59:49.555Z,12.97
2023-05-10T14:02:16.085Z,12.95
2023-05-10T14:04:42.745Z,13.01
2023-05-10T14:07:09.221Z,13.03
2023-05-10T14:09:35.738Z,13.00
2023-05-10T14:12:03.062Z,13.05
2023-05-10T14:14:30.434Z,13.03
2023-05-10T14:16:56.916Z,13.07
2023-05-10T14:19:23.436Z,13.15
2023-05-10T14:21:49.982Z,13.13
2023-05-10T14:24:16.506Z,13.17
2023-05-10T14:26:42.967Z,13.21
2023-05-10T14:29:12.158Z,13.20
2023-05-10T14:31:39.036Z,13.22
2023-05-10T14:34:06.752Z,13.21
2023-05-10T14:36:33.364Z,13.25
2023-05-10T14:38:59.883Z,13.27
2023-05-10T14:41:26.404Z,13.32
2023-05-10T14:43:53.727Z,13.35
2023-05-10T14:46:20.744Z,13.34
2023-05-10T14:48:47.329Z,13.33
2023-05-10T14:51:14.029Z,13.40
2023-05-10T14:53:40.532Z,13.50
2023-05-10T14:56:07.641Z,13.55
2023-05-10T14:58:34.498Z,13.59
2023-05-10T15:01:01.756Z,13.61
2023-05-10T15:03:28.940Z,13.61
2023-05-10T15:05:57.140Z,13.64
2023-05-10T15:08:25.459Z,13.71
2023-05-10T15:10:52.753Z,13.81
2023-05-10T15:13:19.231Z,13.82
2023-05-10T15:15:45.871Z,13.85
2023-05-10T15:18:12.628Z,13.92
2023-05-10T15:20:39.260Z,14.03
2023-05-10T15:23:05.727Z,14.01
2023-05-10T15:25:35.192Z,14.10
2023-05-10T15:28:03.659Z,14.23
2023-05-10T15:30:30.187Z,14.24
2023-05-10T15:32:57.222Z,14.30
2023-05-10T15:35:23.722Z,14.30
2023-05-10T15:37:50.436Z,14.37
2023-05-10T15:40:17.235Z,14.46
2023-05-10T15:42:43.758Z,14.47
2023-05-10T15:45:11.784Z,14.45
2023-05-10T15:47:40.454Z,14.52
2023-05-10T15:50:08.166Z,14.64
2023-05-10T15:52:34.844Z,14.70
2023-05-10T15:55:01.349Z,14.74
2023-05-10T15:57:27.915Z,14.81
2023-05-10T15:59:54.438Z,14.85
2023-05-10T16:02:22.467Z,14.85
2023-05-10T16:04:49.197Z,14.84
2023-05-10T16:07:15.689Z,14.83
2023-05-10T16:09:42.281Z,14.81
2023-05-10T16:12:08.969Z,14.79
2023-05-10T16:14:35.505Z,14.82
2023-05-10T16:17:04.750Z,14.87
2023-05-10T16:19:31.855Z,14.83
2023-05-10T16:21:58.402Z,14.86
2023-05-10T16:24:25.948Z,14.90
2023-05-10T16:26:52.458Z,14.92
2023-05-10T16:29:19.145Z,14.96
2023-05-10T16:31:46.285Z,14.92
2023-05-10T16:34:12.849Z,14.86
2023-05-10T16:36:39.390Z,14.86
2023-05-10T16:39:06.009Z,14.91
2023-05-10T16:41:35.781Z,14.90
2023-05-10T16:44:03.586Z,14.97
2023-05-10T16:46:30.153Z,15.05
2023-05-10T16:48:56.792Z,15.08
2023-05-10T16:51:23.270Z,15.22
2023-05-10T16:53:49.882Z,15.38
2023-05-10T16:56:18.366Z,15.46
2023-05-10T16:58:44.890Z,15.49
2023-05-10T17:01:11.418Z,15.39
2023-05-10T17:03:38.032Z,15.41
2023-05-10T17:06:06.012Z,15.48
2023-05-10T17:08:32.961Z,15.57
2023-05-10T17:11:05.963Z,15.65
2023-05-10T17:13:32.471Z,15.63
2023-05-10T17:16:03.510Z,15.61
2023-05-10T17:18:30.654Z,15.64
2023-05-10T17:20:57.142Z,15.64
2023-05-10T17:23:23.599Z,15.53
2023-05-10T17:25:50.272Z,15.46
2023-05-10T17:28:16.749Z,15.43
2023-05-10T17:30:43.207Z,15.36
2023-05-10T17:33:09.724Z,15.28
2023-05-10T17:35:36.248Z,15.24
2023-05-10T17:38:02.751Z,15.28
2023-05-10T17:40:29.345Z,15.28
2023-05-10T17:42:56.183Z,15.19
2023-05-10T17:45:23.358Z,15.17
2023-05-10T17:47:49.874Z,15.18
2023-05-10T17:50:16.494Z,15.17
2023-05-10T17:52:42.938Z,15.16
2023-05-10T17:55:09.726Z,15.16
2023-05-10T17:57:38.075Z,15.22
2023-05-10T18:00:06.552Z,15.23
2023-05-10T18:02:33.253Z,15.21
2023-05-10T18:05:01.415Z,15.10
2023-05-10T18:07:30.060Z,15.03
2023-05-10T18:09:57.707Z,14.97
2023-05-10T18:12:24.933Z,14.87
2023-05-10T18:14:51.858Z,14.84
2023-05-10T18:17:18.676Z,14.79
2023-05-10T18:19:45.199Z,14.73
2023-05-10T18:22:11.732Z,14.64
2023-05-10T18:24:39.429Z,14.57
2023-05-10T18:27:08.812Z,14.49
2023-05-10T18:29:36.179Z,14.46
2023-05-10T18:32:02.779Z,14.46
2023-05-10T18:34:29.633Z,14.42
2023-05-10T18:36:56.365Z,14.42
2023-05-10T18:39:23.099Z,14.36
2023-05-10T18:41:50.573Z,14.37
2023-05-10T18:44:17.177Z,14.33
2023-05-10T18:46:43.709Z,14.33
2023-05-10T18:49:10.257Z,14.30
2023-05-10T18:51:36.784Z,14.28
2023-05-10T18:54:03.542Z,14.29
2023-05-10T18:56:30.108Z,14.26
2023-05-10T18:58:56.694Z,14.25
2023-05-10T19:01:23.273Z,14.23
2023-05-10T19:03:49.760Z,14.22
2023-05-10T19:06:16.416Z,14.16
2023-05-10T19:08:42.968Z,14.13
2023-05-10T19:11:09.495Z,14.12
2023-05-10T19:13:36.362Z,14.10
2023-05-10T19:16:12.127Z,14.06
2023-05-10T19:18:40.444Z,14.03
2023-05-10T19:21:10.650Z,14.03
2023-05-10T19:23:40.347Z,13.98
2023-05-10T19:26:07.313Z,13.98
2023-05-10T19:28:35.462Z,13.94
2023-05-10T19:31:02.587Z,13.93
2023-05-10T19:33:29.263Z,13.90
2023-05-10T19:35:56.239Z,13.91
2023-05-10T19:38:24.084Z,13.85
2023-05-10T19:40:57.885Z,13.80
2023-05-10T19:43:27.754Z,13.82
2023-05-10T19:45:55.464Z,13.81
2023-05-10T19:48:21.934Z,13.76
2023-05-10T19:50:48.442Z,13.74
2023-05-10T19:53:15.067Z,13.74
2023-05-10T19:55:41.677Z,13.76
2023-05-10T19:58:08.566Z,13.77
2023-05-10T20:00:35.509Z,13.75
2023-05-10T20:03:02.599Z,13.76
2023-05-10T20:05:29.358Z,13.72
2023-05-10T20:07:56.053Z,13.71
2023-05-10T20:10:24.661Z,13.68
2023-05-10T20:12:53.222Z,13.63
2023-05-10T20:15:22.157Z,13.56
2023-05-10T20:17:51.241Z,13.50
2023-05-10T20:20:18.411Z,13.48
2023-05-10T20:22:45.654Z,13.43
2023-05-10T20:25:12.816Z,13.40
2023-05-10T20:27:39.444Z,13.40
2023-05-10T20:30:07.060Z,13.42
2023-05-10T20:32:34.631Z,13.38
2023-05-10T20:35:01.586Z,13.35
2023-05-10T20:37:28.933Z,13.37
2023-05-10T20:39:55.849Z,13.40
2023-05-10T20:42:22.847Z,13.39
2023-05-10T20:44:50.206Z,13.38
2023-05-10T20:47:17.481Z,13.38
2023-05-10T20:49:44.050Z,13.43
2023-05-10T20:52:11.326Z,13.42
2023-05-10T20:54:37.931Z,13.42
2023-05-10T20:57:04.470Z,13.39
2023-05-10T20:59:31.000Z,13.40
2023-05-10T21:01:57.847Z,13.43
2023-05-10T21:04:25.797Z,13.42
2023-05-10T21:06:53.266Z,13.44
2023-05-10T21:09:19.889Z,13.42
2023-05-10T21:11:46.649Z,13.43
2023-05-10T21:14:13.249Z,13.41
2023-05-10T21:16:39.996Z,13.40
2023-05-10T21:19:07.504Z,13.36
2023-05-10T21:21:34.461Z,13.36
2023-05-10T21:24:01.074Z,13.33
2023-05-10T21:26:27.725Z,13.33
2023-05-10T21:28:54.426Z,13.33
2023-05-10T21:31:21.072Z,13.32
2023-05-10T21:33:48.026Z,13.27
2023-05-10T21:36:14.628Z,13.29
2023-05-10T21:38:44.171Z,13.27
2023-05-10T21:41:10.984Z,13.26
2023-05-10T21:43:37.695Z,13.24
2023-05-10T21:46:04.745Z,13.18
2023-05-10T21:48:31.413Z,13.16
2023-05-10T21:50:57.927Z,13.12
2023-05-10T21:53:24.856Z,13.13
2023-05-10T21:55:51.444Z,13.11
2023-05-10T21:58:18.165Z,13.12
2023-05-10T22:00:44.708Z,13.09
2023-05-10T22:03:11.368Z,13.07
2023-05-10T22:05:38.490Z,13.03
2023-05-10T22:08:06.213Z,13.00
2023-05-10T22:10:32.982Z,12.98
2023-05-10T22:13:00.181Z,12.96
2023-05-10T22:15:27.143Z,12.91
2023-05-10T22:17:53.735Z,12.92
2023-05-10T22:20:21.164Z,12.88
2023-05-10T22:22:47.668Z,12.80
2023-05-10T22:25:14.383Z,12.80
2023-05-10T22:27:41.063Z,12.81
2023-05-10T22:30:08.350Z,12.83
2023-05-10T22:32:35.074Z,12.81
2023-05-10T22:35:01.792Z,12.80
2023-05-10T22:37:28.279Z,12.82
2023-05-10T22:39:54.785Z,12.83
2023-05-10T22:42:21.349Z,12.87
2023-05-10T22:44:47.936Z,12.85
2023-05-10T22:47:14.593Z,12.87
2023-05-10T22:49:41.088Z,12.87
2023-05-10T22:52:07.724Z,12.84
2023-05-10T22:54:36.182Z,12.79
2023-05-10T22:57:03.115Z,12.79
2023-05-10T22:59:29.640Z,12.77
2023-05-10T23:01:56.318Z,12.78
2023-05-10T23:04:22.876Z,12.75
2023-05-10T23:06:49.534Z,12.74
2023-05-10T23:09:16.927Z,12.75
2023-05-10T23:11:43.436Z,12.73
2023-05-10T23:14:09.917Z,12.68
2023-05-10T23:16:36.715Z,12.65
2023-05-10T23:19:03.481Z,12.64
2023-05-10T23:21:32.205Z,12.61
2023-05-10T23:23:59.268Z,12.63
2023-05-10T23:26:25.916Z,12.60
2023-05-10T23:28:52.451Z,12.64
2023-05-10T23:31:19.089Z,12.63
2023-05-10T23:33:45.674Z,12.64
2023-05-10T23:36:12.467Z,12.62
2023-05-10T23:38:39.485Z,12.65
2023-05-10T23:41:06.300Z,12.62
2023-05-10T23:43:32.869Z,12.64
2023-05-10T23:45:59.560Z,12.64
2023-05-10T23:48:26.238Z,12.64
2023-05-10T23:50:52.837Z,12.62
2023-05-10T23:53:19.438Z,12.63
2023-05-10T23:55:46.097Z,12.61
2023-05-10T23:58:12.734Z,12.65
